createdAt,value
2018-08-17T00:00:29.696Z,101190.08
2018-08-17T00:02:58.480Z,101188.42
2018-08-17T00:05:27.106Z,101184.87
2018-08-17T00:07:55.640Z,101187.16
2018-08-17T00:10:24.294Z,101188.22
2018-08-17T00:12:52.864Z,101188.54
2018-08-17T00:15:21.477Z,101184.94
2018-08-17T00:17:49.974Z,101186.31
2018-08-17T00:20:18.518Z,101187.92
2018-08-17T00:22:47.152Z,101199.45
2018-08-17T00:25:15.676Z,101199.68
2018-08-17T00:27:44.293Z,101204.13
2018-08-17T00:30:12.947Z,101189.14
2018-08-17T00:32:41.505Z,101193.56
2018-08-17T00:35:10.145Z,101200.50
2018-08-17T00:37:38.670Z,101201.78
2018-08-17T00:40:07.507Z,101197.89
2018-08-17T00:42:36.022Z,101206.44
2018-08-17T00:45:05.240Z,101201.78
2018-08-17T00:47:33.749Z,101199.59
2018-08-17T00:50:02.601Z,101203.59
2018-08-17T00:52:31.092Z,101205.97
2018-08-17T00:54:59.653Z,101204.00
2018-08-17T00:57:28.172Z,101208.62
2018-08-17T00:59:56.724Z,101215.97
2018-08-17T01:02:25.327Z,101212.00
2018-08-17T01:04:53.833Z,101211.58
2018-08-17T01:07:22.351Z,101219.27
2018-08-17T01:09:50.903Z,101213.45
2018-08-17T01:12:19.613Z,101220.02
2018-08-17T01:14:48.145Z,101238.23
2018-08-17T01:17:16.654Z,101228.02
2018-08-17T01:19:45.152Z,101224.33
2018-08-17T01:22:13.885Z,101237.91
2018-08-17T01:24:42.343Z,101227.28
2018-08-17T01:27:10.882Z,101229.50
2018-08-17T01:29:39.607Z,101232.52
2018-08-17T01:32:08.204Z,101239.61
2018-08-17T01:34:36.695Z,101250.95
2018-08-17T01:37:05.497Z,101249.06
2018-08-17T01:39:34.023Z,101242.97
2018-08-17T01:42:02.617Z,101252.75
2018-08-17T01:44:31.100Z,101274.14
2018-08-17T01:46:59.656Z,101278.95
2018-08-17T01:49:28.210Z,101283.30
2018-08-17T01:51:56.793Z,101266.91
2018-08-17T01:54:25.299Z,101266.85
2018-08-17T01:57:11.886Z,101286.33
2018-08-17T01:59:40.871Z,101309.13
2018-08-17T02:02:09.485Z,101314.55
2018-08-17T02:04:38.080Z,101294.52
2018-08-17T02:07:06.600Z,101282.91
2018-08-17T02:09:35.188Z,101292.46
2018-08-17T02:12:03.714Z,101314.04
2018-08-17T02:14:32.239Z,101302.41
2018-08-17T02:17:00.879Z,101283.22
2018-08-17T02:19:29.399Z,101287.09
2018-08-17T02:21:58.027Z,101291.02
2018-08-17T02:24:26.622Z,101302.03
2018-08-17T02:26:55.110Z,101314.48
2018-08-17T02:29:23.907Z,101335.73
2018-08-17T02:31:52.595Z,101328.05
2018-08-17T02:34:21.120Z,101314.87
2018-08-17T02:36:49.634Z,101333.57
2018-08-17T02:39:18.172Z,101363.59
2018-08-17T02:41:46.810Z,101384.69
2018-08-17T02:44:15.320Z,101368.84
2018-08-17T02:46:43.811Z,101323.88
2018-08-17T02:49:12.366Z,101332.43
2018-08-17T02:51:40.850Z,101324.50
2018-08-17T02:54:09.436Z,101313.38
2018-08-17T02:56:38.064Z,101300.95
2018-08-17T02:59:06.709Z,101321.20
2018-08-17T03:01:35.615Z,101334.44
2018-08-17T03:04:04.421Z,101325.73
2018-08-17T03:06:32.917Z,101314.27
2018-08-17T03:09:01.733Z,101302.98
2018-08-17T03:11:30.245Z,101280.31
2018-08-17T03:13:58.875Z,101264.75
2018-08-17T03:16:27.334Z,101249.55
2018-08-17T03:18:55.922Z,101250.10
2018-08-17T03:21:25.042Z,101246.05
2018-08-17T03:23:53.557Z,101250.71
2018-08-17T03:26:22.978Z,101272.33
2018-08-17T03:28:51.489Z,101274.36
2018-08-17T03:31:19.984Z,101273.58
2018-08-17T03:33:48.632Z,101263.58
2018-08-17T03:36:17.139Z,101268.53
2018-08-17T03:38:45.678Z,101278.94
2018-08-17T03:41:14.163Z,101293.64
2018-08-17T03:43:42.667Z,101279.83
2018-08-17T03:46:11.371Z,101271.73
2018-08-17T03:48:39.914Z,101277.53
2018-08-17T03:51:08.463Z,101264.44
2018-08-17T03:53:37.063Z,101263.92
2018-08-17T03:56:05.547Z,101272.92
2018-08-17T03:58:34.038Z,101276.73
2018-08-17T04:01:03.114Z,101270.75
2018-08-17T04:03:31.593Z,101266.29
2018-08-17T04:06:00.111Z,101271.55
2018-08-17T04:08:28.783Z,101271.92
2018-08-17T04:10:57.289Z,101279.28
2018-08-17T04:13:25.793Z,101287.64
2018-08-17T04:15:54.303Z,101285.91
2018-08-17T04:18:23.118Z,101292.95
2018-08-17T04:20:51.688Z,101281.80
2018-08-17T04:23:20.144Z,101280.66
2018-08-17T04:25:48.668Z,101276.42
2018-08-17T04:28:17.197Z,101284.63
2018-08-17T04:30:45.748Z,101275.91
2018-08-17T04:33:14.320Z,101266.17
2018-08-17T04:35:42.980Z,101271.88
2018-08-17T04:38:11.717Z,101282.04
2018-08-17T04:40:40.274Z,101287.14
2018-08-17T04:43:09.330Z,101289.39
2018-08-17T04:45:38.045Z,101297.72
2018-08-17T04:48:06.553Z,101294.45
2018-08-17T04:50:35.024Z,101293.59
2018-08-17T04:53:03.529Z,101298.49
2018-08-17T04:55:31.988Z,101284.87
2018-08-17T04:58:01.529Z,101283.81
2018-08-17T05:00:30.058Z,101290.86
2018-08-17T05:02:58.536Z,101291.66
2018-08-17T05:05:27.053Z,101294.45
2018-08-17T05:07:55.557Z,101291.13
2018-08-17T05:10:24.086Z,101286.24
2018-08-17T05:12:52.660Z,101299.23
2018-08-17T05:15:21.282Z,101300.30
2018-08-17T05:17:49.898Z,101301.64
2018-08-17T05:20:18.424Z,101309.41
2018-08-17T05:22:46.935Z,101321.27
2018-08-17T05:25:15.885Z,101323.27
2018-08-17T05:27:44.455Z,101317.70
2018-08-17T05:30:13.159Z,101322.90
2018-08-17T05:32:41.662Z,101331.77
2018-08-17T05:35:10.202Z,101330.30
2018-08-17T05:37:38.715Z,101308.55
2018-08-17T05:40:08.141Z,101312.25
2018-08-17T05:42:37.230Z,101317.21
2018-08-17T05:45:06.767Z,101320.92
2018-08-17T05:47:35.439Z,101326.42
2018-08-17T05:50:04.362Z,101316.62
2018-08-17T05:52:32.901Z,101329.30
2018-08-17T05:55:01.632Z,101355.09
2018-08-17T05:57:31.483Z,101364.50
2018-08-17T05:59:59.970Z,101367.05
2018-08-17T06:02:28.530Z,101357.59
2018-08-17T06:04:57.064Z,101350.71
2018-08-17T06:07:25.542Z,101358.20
2018-08-17T06:09:54.091Z,101345.45
2018-08-17T06:12:22.819Z,101347.48
2018-08-17T06:14:51.322Z,101351.84
2018-08-17T06:17:19.860Z,101350.22
2018-08-17T06:19:48.318Z,101337.48
2018-08-17T06:22:19.893Z,101340.09
2018-08-17T06:24:48.949Z,101343.14
2018-08-17T06:27:17.476Z,101345.73
2018-08-17T06:29:46.097Z,101354.88
2018-08-17T06:32:14.610Z,101351.76
2018-08-17T06:34:43.119Z,101358.96
2018-08-17T06:37:11.704Z,101360.91
2018-08-17T06:39:40.233Z,101369.28
2018-08-17T06:42:08.798Z,101378.52
2018-08-17T06:44:37.334Z,101371.41
2018-08-17T06:47:05.994Z,101373.58
2018-08-17T06:49:34.461Z,101384.99
2018-08-17T06:52:03.260Z,101387.39
2018-08-17T06:54:31.911Z,101379.34
2018-08-17T06:57:00.464Z,101383.16
2018-08-17T06:59:29.120Z,101391.92
2018-08-17T07:01:57.787Z,101392.88
2018-08-17T07:04:26.289Z,101393.38
2018-08-17T07:06:54.848Z,101399.63
2018-08-17T07:09:23.536Z,101402.17
2018-08-17T07:11:52.183Z,101410.14
2018-08-17T07:14:20.760Z,101415.91
2018-08-17T07:16:49.407Z,101422.44
2018-08-17T07:19:17.997Z,101404.78
2018-08-17T07:21:46.632Z,101420.84
2018-08-17T07:24:15.236Z,101426.22
2018-08-17T07:26:43.903Z,101431.62
2018-08-17T07:29:12.562Z,101430.37
2018-08-17T07:31:41.053Z,101431.23
2018-08-17T07:34:09.632Z,101442.31
2018-08-17T07:36:38.276Z,101446.22
2018-08-17T07:39:07.889Z,101452.17
2018-08-17T07:41:37.305Z,101451.85
2018-08-17T07:44:06.265Z,101456.08
2018-08-17T07:46:34.925Z,101457.10
2018-08-17T07:49:03.704Z,101464.72
2018-08-17T07:51:32.246Z,101466.44
2018-08-17T07:54:00.745Z,101466.59
2018-08-17T07:56:29.259Z,101472.42
2018-08-17T07:58:58.262Z,101466.95
2018-08-17T08:01:26.738Z,101470.39
2018-08-17T08:03:55.297Z,101480.92
2018-08-17T08:06:23.840Z,101481.53
2018-08-17T08:08:52.414Z,101478.86
2018-08-17T08:11:20.954Z,101470.37
2018-08-17T08:13:49.457Z,101475.38
2018-08-17T08:16:18.040Z,101480.87
2018-08-17T08:18:46.621Z,101492.21
2018-08-17T08:21:15.178Z,101495.64
2018-08-17T08:23:43.776Z,101504.53
2018-08-17T08:26:12.319Z,101504.19
2018-08-17T08:28:40.814Z,101500.11
2018-08-17T08:31:09.525Z,101504.25
2018-08-17T08:33:38.022Z,101501.48
2018-08-17T08:36:06.601Z,101510.73
2018-08-17T08:38:35.135Z,101518.78
2018-08-17T08:41:03.661Z,101509.94
2018-08-17T08:43:32.123Z,101511.77
2018-08-17T08:46:00.691Z,101517.23
2018-08-17T08:48:29.219Z,101515.50
2018-08-17T08:50:57.798Z,101511.05
2018-08-17T08:53:26.406Z,101515.50
2018-08-17T08:55:55.060Z,101512.61
2018-08-17T08:58:23.589Z,101512.59
2018-08-17T09:00:52.124Z,101515.73
2018-08-17T09:03:20.669Z,101527.20
2018-08-17T09:05:49.227Z,101526.68
2018-08-17T09:08:17.791Z,101523.98
2018-08-17T09:10:46.372Z,101523.20
2018-08-17T09:13:15.046Z,101527.15
2018-08-17T09:15:43.594Z,101524.42
2018-08-17T09:18:12.135Z,101530.59
2018-08-17T09:20:40.787Z,101533.66
2018-08-17T09:23:09.626Z,101538.33
2018-08-17T09:25:38.227Z,101536.39
2018-08-17T09:28:06.912Z,101537.16
2018-08-17T09:30:35.444Z,101534.64
2018-08-17T09:33:03.991Z,101529.19
2018-08-17T09:35:32.549Z,101528.97
2018-08-17T09:38:01.118Z,101528.33
2018-08-17T09:40:29.656Z,101525.95
2018-08-17T09:42:58.248Z,101526.67
2018-08-17T09:45:26.797Z,101523.14
2018-08-17T09:47:55.264Z,101524.68
2018-08-17T09:50:23.879Z,101529.27
2018-08-17T09:52:52.370Z,101522.59
2018-08-17T09:55:20.847Z,101525.48
2018-08-17T09:57:49.405Z,101530.73
2018-08-17T10:00:17.952Z,101528.28
2018-08-17T10:02:51.486Z,101527.88
2018-08-17T10:05:25.275Z,101523.30
2018-08-17T10:07:59.201Z,101521.13
2018-08-17T10:10:29.324Z,101525.27
2018-08-17T10:12:57.990Z,101523.39
2018-08-17T10:15:26.476Z,101522.50
2018-08-17T10:17:55.043Z,101527.19
2018-08-17T10:20:24.125Z,101525.25
2018-08-17T10:22:52.628Z,101526.36
2018-08-17T10:25:23.223Z,101527.18
2018-08-17T10:27:53.098Z,101531.22
2018-08-17T10:30:22.316Z,101526.62
2018-08-17T10:32:54.729Z,101524.06
2018-08-17T10:35:31.648Z,101519.22
2018-08-17T10:38:03.244Z,101524.17
2018-08-17T10:40:31.913Z,101529.39
2018-08-17T10:43:01.905Z,101523.06
2018-08-17T10:45:30.725Z,101523.34
2018-08-17T10:47:59.428Z,101527.42
2018-08-17T10:50:30.037Z,101523.34
2018-08-17T10:52:59.845Z,101537.34
2018-08-17T10:55:38.210Z,101535.69
2018-08-17T10:58:07.432Z,101540.66
2018-08-17T11:00:36.336Z,101531.02
2018-08-17T11:03:04.931Z,101532.93
2018-08-17T11:05:33.409Z,101534.53
2018-08-17T11:08:01.953Z,101535.40
2018-08-17T11:10:30.486Z,101536.00
2018-08-17T11:12:58.949Z,101540.05
2018-08-17T11:15:27.615Z,101545.03
2018-08-17T11:17:56.169Z,101547.02
2018-08-17T11:20:24.834Z,101546.85
2018-08-17T11:22:53.404Z,101548.97
2018-08-17T11:25:21.868Z,101549.98
2018-08-17T11:27:51.234Z,101553.11
2018-08-17T11:30:19.788Z,101552.30
2018-08-17T11:32:48.528Z,101551.18
2018-08-17T11:35:17.069Z,101552.91
2018-08-17T11:37:45.565Z,101551.10
2018-08-17T11:40:15.770Z,101544.69
2018-08-17T11:42:48.196Z,101554.88
2018-08-17T11:45:19.738Z,101558.16
2018-08-17T11:47:48.662Z,101557.77
2018-08-17T11:50:18.798Z,101563.58
2018-08-17T11:52:51.321Z,101561.25
2018-08-17T11:55:20.448Z,101566.77
2018-08-17T11:57:49.116Z,101561.16
2018-08-17T12:00:17.689Z,101567.17
2018-08-17T12:02:46.367Z,101568.83
2018-08-17T12:05:14.922Z,101557.02
2018-08-17T12:07:44.383Z,101556.06
2018-08-17T12:10:13.371Z,101558.22
2018-08-17T12:12:42.654Z,101561.25
2018-08-17T12:15:11.920Z,101558.93
2018-08-17T12:17:40.438Z,101559.19
2018-08-17T12:20:08.937Z,101557.47
2018-08-17T12:22:37.440Z,101566.73
2018-08-17T12:25:07.065Z,101563.91
2018-08-17T12:27:35.706Z,101569.58
2018-08-17T12:30:04.985Z,101563.84
2018-08-17T12:32:33.611Z,101570.98
2018-08-17T12:35:02.124Z,101570.10
2018-08-17T12:37:30.901Z,101567.06
2018-08-17T12:39:59.461Z,101570.26
2018-08-17T12:42:28.174Z,101575.41
2018-08-17T12:45:02.814Z,101566.47
2018-08-17T12:47:32.005Z,101567.62
2018-08-17T12:50:00.526Z,101561.86
2018-08-17T12:52:29.119Z,101563.19
2018-08-17T12:54:57.568Z,101565.34
2018-08-17T12:57:30.293Z,101556.49
2018-08-17T12:59:58.842Z,101554.13
2018-08-17T13:02:27.781Z,101557.69
2018-08-17T13:04:56.311Z,101545.20
2018-08-17T13:07:24.851Z,101553.88
2018-08-17T13:09:54.358Z,101559.25
2018-08-17T13:12:22.951Z,101557.05
2018-08-17T13:14:52.600Z,101558.73
2018-08-17T13:17:21.244Z,101556.94
2018-08-17T13:19:49.803Z,101559.19
2018-08-17T13:22:18.648Z,101553.77
2018-08-17T13:24:47.197Z,101553.73
2018-08-17T13:27:15.969Z,101552.36
2018-08-17T13:29:44.569Z,101548.82
2018-08-17T13:32:13.118Z,101558.27
2018-08-17T13:34:41.621Z,101555.69
2018-08-17T13:37:10.168Z,101552.09
2018-08-17T13:39:38.736Z,101562.33
2018-08-17T13:42:07.468Z,101552.02
2018-08-17T13:44:35.995Z,101550.45
2018-08-17T13:47:04.624Z,101552.81
2018-08-17T13:49:33.097Z,101544.16
2018-08-17T13:52:01.672Z,101546.17
2018-08-17T13:54:30.218Z,101544.20
2018-08-17T13:56:58.699Z,101544.59
2018-08-17T13:59:27.252Z,101554.68
2018-08-17T14:01:58.198Z,101553.35
2018-08-17T14:04:26.782Z,101547.48
2018-08-17T14:06:55.352Z,101551.94
2018-08-17T14:09:24.149Z,101563.05
2018-08-17T14:11:52.821Z,101551.67
2018-08-17T14:14:21.485Z,101551.22
2018-08-17T14:16:50.039Z,101552.86
2018-08-17T14:19:18.628Z,101558.87
2018-08-17T14:21:47.141Z,101556.14
2018-08-17T14:24:15.688Z,101554.04
2018-08-17T14:26:44.172Z,101565.99
2018-08-17T14:29:12.688Z,101566.20
2018-08-17T14:31:41.164Z,101560.06
2018-08-17T14:34:09.769Z,101555.59
2018-08-17T14:36:38.347Z,101550.78
2018-08-17T14:39:07.506Z,101547.73
2018-08-17T14:41:46.032Z,101549.60
2018-08-17T14:44:14.621Z,101539.93
2018-08-17T14:46:43.163Z,101546.98
2018-08-17T14:49:11.747Z,101541.44
2018-08-17T14:51:40.283Z,101545.89
2018-08-17T14:54:08.969Z,101551.76
2018-08-17T14:56:37.525Z,101548.79
2018-08-17T14:59:06.353Z,101540.86
2018-08-17T15:01:35.049Z,101551.53
2018-08-17T15:04:03.585Z,101550.66
2018-08-17T15:06:32.304Z,101550.05
2018-08-17T15:09:00.777Z,101555.12
2018-08-17T15:11:29.377Z,101558.44
2018-08-17T15:13:57.978Z,101557.20
2018-08-17T15:16:26.552Z,101552.99
2018-08-17T15:18:55.068Z,101550.69
2018-08-17T15:21:23.726Z,101548.08
2018-08-17T15:23:52.260Z,101555.48
2018-08-17T15:26:20.776Z,101545.04
2018-08-17T15:28:49.327Z,101552.88
2018-08-17T15:31:17.906Z,101550.56
2018-08-17T15:33:46.455Z,101545.85
2018-08-17T15:36:15.135Z,101546.18
2018-08-17T15:38:44.087Z,101553.36
2018-08-17T15:41:12.622Z,101545.09
2018-08-17T15:43:41.172Z,101551.31
2018-08-17T15:46:09.778Z,101554.05
2018-08-17T15:48:44.488Z,101548.16
2018-08-17T15:51:15.363Z,101545.23
2018-08-17T15:53:43.997Z,101538.77
2018-08-17T15:56:13.141Z,101537.15
2018-08-17T15:58:41.708Z,101541.10
2018-08-17T16:01:10.550Z,101543.62
2018-08-17T16:03:39.309Z,101540.75
2018-08-17T16:06:08.532Z,101543.69
2018-08-17T16:08:37.100Z,101544.26
2018-08-17T16:11:05.704Z,101538.46
2018-08-17T16:13:34.237Z,101533.36
2018-08-17T16:16:02.789Z,101536.38
2018-08-17T16:18:31.659Z,101528.81
2018-08-17T16:21:00.233Z,101532.46
2018-08-17T16:23:28.780Z,101532.95
2018-08-17T16:25:57.486Z,101539.53
2018-08-17T16:28:26.281Z,101535.53
2018-08-17T16:30:54.820Z,101542.11
2018-08-17T16:33:23.365Z,101542.98
2018-08-17T16:35:51.916Z,101537.12
2018-08-17T16:38:20.467Z,101536.83
2018-08-17T16:40:51.711Z,101541.63
2018-08-17T16:43:29.420Z,101546.03
2018-08-17T16:45:57.982Z,101545.08
2018-08-17T16:48:26.485Z,101553.23
2018-08-17T16:50:55.036Z,101548.11
2018-08-17T16:53:23.519Z,101548.19
2018-08-17T16:55:52.048Z,101546.06
2018-08-17T16:58:20.606Z,101549.21
2018-08-17T17:00:49.219Z,101543.55
2018-08-17T17:03:17.853Z,101549.74
2018-08-17T17:05:46.474Z,101547.06
2018-08-17T17:08:15.037Z,101551.63
2018-08-17T17:10:43.808Z,101554.52
2018-08-17T17:13:12.325Z,101554.00
2018-08-17T17:15:40.798Z,101556.31
2018-08-17T17:18:09.951Z,101554.10
2018-08-17T17:20:39.403Z,101561.36
2018-08-17T17:23:09.304Z,101564.35
2018-08-17T17:25:37.913Z,101566.95
2018-08-17T17:28:06.819Z,101561.41
2018-08-17T17:30:44.057Z,101563.91
2018-08-17T17:33:12.734Z,101570.20
2018-08-17T17:35:42.411Z,101566.28
2018-08-17T17:38:11.530Z,101564.96
2018-08-17T17:40:40.905Z,101571.81
2018-08-17T17:43:09.732Z,101569.89
2018-08-17T17:45:38.882Z,101576.91
2018-08-17T17:48:07.581Z,101579.92
2018-08-17T17:50:36.086Z,101578.69
2018-08-17T17:53:04.978Z,101579.52
2018-08-17T17:55:44.269Z,101583.91
2018-08-17T17:58:13.507Z,101593.59
2018-08-17T18:00:46.205Z,101585.00
2018-08-17T18:03:14.852Z,101590.93
2018-08-17T18:05:43.376Z,101592.56
2018-08-17T18:08:17.350Z,101591.06
2018-08-17T18:10:46.094Z,101592.47
2018-08-17T18:13:14.671Z,101589.60
2018-08-17T18:15:43.226Z,101599.23
2018-08-17T18:18:11.764Z,101596.11
2018-08-17T18:20:40.886Z,101596.88
2018-08-17T18:23:09.413Z,101605.94
2018-08-17T18:25:38.069Z,101609.03
2018-08-17T18:28:06.754Z,101607.01
2018-08-17T18:30:35.419Z,101608.19
2018-08-17T18:33:04.032Z,101611.48
2018-08-17T18:35:32.517Z,101605.77
2018-08-17T18:38:01.155Z,101614.08
2018-08-17T18:40:29.789Z,101613.25
2018-08-17T18:42:58.377Z,101619.87
2018-08-17T18:45:27.068Z,101619.31
2018-08-17T18:47:55.643Z,101618.47
2018-08-17T18:50:24.352Z,101621.50
2018-08-17T18:52:52.995Z,101619.84
2018-08-17T18:55:21.501Z,101626.72
2018-08-17T18:57:50.035Z,101626.98
2018-08-17T19:00:18.578Z,101630.28
2018-08-17T19:02:47.161Z,101633.28
2018-08-17T19:05:15.703Z,101638.48
2018-08-17T19:07:44.335Z,101634.86
2018-08-17T19:10:13.057Z,101640.59
2018-08-17T19:12:41.554Z,101639.80
2018-08-17T19:15:11.537Z,101645.00
2018-08-17T19:17:40.455Z,101657.91
2018-08-17T19:20:11.480Z,101666.39
2018-08-17T19:22:43.659Z,101660.00
2018-08-17T19:25:13.764Z,101663.28
2018-08-17T19:27:42.907Z,101661.06
2018-08-17T19:30:25.534Z,101673.65
2018-08-17T19:32:55.429Z,101673.31
2018-08-17T19:35:24.188Z,101677.37
2018-08-17T19:37:53.507Z,101679.78
2018-08-17T19:40:23.014Z,101676.46
2018-08-17T19:42:51.829Z,101679.41
2018-08-17T19:45:21.094Z,101682.36
2018-08-17T19:47:50.048Z,101673.80
2018-08-17T19:50:18.556Z,101679.16
2018-08-17T19:52:47.230Z,101685.48
2018-08-17T19:55:15.815Z,101687.69
2018-08-17T19:57:44.313Z,101679.52
2018-08-17T20:00:13.683Z,101690.91
2018-08-17T20:02:42.568Z,101694.67
2018-08-17T20:05:11.485Z,101692.25
2018-08-17T20:07:40.309Z,101694.58
2018-08-17T20:10:10.249Z,101701.03
2018-08-17T20:12:38.929Z,101700.45
2018-08-17T20:15:07.977Z,101702.56
2018-08-17T20:17:36.884Z,101699.13
2018-08-17T20:20:08.228Z,101703.93
2018-08-17T20:22:36.770Z,101703.29
2018-08-17T20:25:12.040Z,101708.67
2018-08-17T20:27:40.858Z,101699.20
2018-08-17T20:30:14.739Z,101704.27
2018-08-17T20:32:44.092Z,101701.72
2018-08-17T20:35:12.801Z,101704.78
2018-08-17T20:37:45.068Z,101709.22
2018-08-17T20:40:13.740Z,101710.89
2018-08-17T20:42:42.481Z,101701.51
2018-08-17T20:45:11.398Z,101710.38
2018-08-17T20:47:40.761Z,101707.91
2018-08-17T20:50:13.195Z,101708.09
2018-08-17T20:52:48.024Z,101710.70
2018-08-17T20:55:16.538Z,101710.48
2018-08-17T20:57:46.832Z,101717.72
2018-08-17T21:00:15.353Z,101714.48
2018-08-17T21:02:43.988Z,101716.92
2018-08-17T21:05:12.525Z,101714.92
2018-08-17T21:07:41.041Z,101717.80
2018-08-17T21:10:10.876Z,101722.30
2018-08-17T21:12:39.394Z,101725.06
2018-08-17T21:15:08.046Z,101727.02
2018-08-17T21:17:36.553Z,101730.42
2018-08-17T21:20:05.735Z,101739.70
2018-08-17T21:22:34.271Z,101736.02
2018-08-17T21:25:02.841Z,101736.13
2018-08-17T21:27:32.128Z,101740.45
2018-08-17T21:30:00.859Z,101740.64
2018-08-17T21:32:29.387Z,101742.88
2018-08-17T21:34:58.041Z,101741.70
2018-08-17T21:37:27.424Z,101745.81
2018-08-17T21:39:56.078Z,101741.90
2018-08-17T21:42:24.702Z,101745.42
2018-08-17T21:44:53.194Z,101745.38
2018-08-17T21:47:21.768Z,101744.77
2018-08-17T21:49:50.488Z,101747.27
2018-08-17T21:52:24.402Z,101752.61
2018-08-17T21:54:52.905Z,101752.43
2018-08-17T21:57:21.465Z,101757.34
2018-08-17T21:59:50.780Z,101751.66
2018-08-17T22:02:20.458Z,101752.95
2018-08-17T22:04:49.064Z,101749.16
2018-08-17T22:07:22.703Z,101754.03
2018-08-17T22:09:52.024Z,101751.30
2018-08-17T22:12:20.883Z,101753.23
2018-08-17T22:14:50.184Z,101755.86
2018-08-17T22:17:31.403Z,101751.55
2018-08-17T22:20:00.161Z,101752.78
2018-08-17T22:22:28.696Z,101761.92
2018-08-17T22:24:58.450Z,101765.41
2018-08-17T22:27:28.059Z,101765.41
2018-08-17T22:29:58.059Z,101755.45
2018-08-17T22:32:26.725Z,101761.00
2018-08-17T22:34:55.731Z,101758.32
2018-08-17T22:37:24.277Z,101759.80
2018-08-17T22:39:52.777Z,101759.53
2018-08-17T22:42:22.662Z,101761.77
2018-08-17T22:44:51.326Z,101758.63
2018-08-17T22:47:22.954Z,101763.91
2018-08-17T22:49:52.426Z,101768.37
2018-08-17T22:52:21.086Z,101766.45
2018-08-17T22:54:54.872Z,101767.78
2018-08-17T22:57:23.423Z,101764.72
2018-08-17T23:00:08.396Z,101761.47
2018-08-17T23:02:37.011Z,101759.82
2018-08-17T23:05:06.520Z,101759.66
2018-08-17T23:07:35.049Z,101757.89
2018-08-17T23:10:03.918Z,101759.53
2018-08-17T23:12:32.472Z,101764.77
2018-08-17T23:15:00.968Z,101765.11
2018-08-17T23:17:29.541Z,101768.14
2018-08-17T23:19:58.571Z,101767.77
2018-08-17T23:22:27.037Z,101774.98
2018-08-17T23:24:55.666Z,101775.66
2018-08-17T23:27:24.144Z,101778.48
2018-08-17T23:29:52.641Z,101774.42
2018-08-17T23:32:21.172Z,101774.55
2018-08-17T23:34:49.799Z,101773.37
2018-08-17T23:37:18.323Z,101781.92
2018-08-17T23:39:47.048Z,101783.05
2018-08-17T23:42:15.666Z,101782.08
2018-08-17T23:44:44.149Z,101782.08
2018-08-17T23:47:12.669Z,101785.50
2018-08-17T23:49:41.208Z,101790.31
2018-08-17T23:52:09.701Z,101783.05
2018-08-17T23:54:39.277Z,101782.59
2018-08-17T23:57:07.898Z,101785.50
2018-08-17T23:59:36.414Z,101790.77
